sensor_id;sensor_type;location;lat;lon;timestamp;P1;durP1;ratioP1;P2;durP2;ratioP2
908;SDS011;441;51.192;6.788;2022-11-20T00:00:19;5.07;;;4.87;;
908;SDS011;441;51.192;6.788;2022-11-20T00:02:46;5.10;;;4.90;;
908;SDS011;441;51.192;6.788;2022-11-20T00:05:13;4.87;;;4.67;;
908;SDS011;441;51.192;6.788;2022-11-20T00:07:40;4.70;;;4.50;;
908;SDS011;441;51.192;6.788;2022-11-20T00:10:07;5.83;;;5.50;;
908;SDS011;441;51.192;6.788;2022-11-20T00:12:35;5.03;;;4.83;;
908;SDS011;441;51.192;6.788;2022-11-20T00:15:02;5.23;;;4.93;;
908;SDS011;441;51.192;6.788;2022-11-20T00:17:30;5.30;;;5.00;;
908;SDS011;441;51.192;6.788;2022-11-20T00:19:57;5.00;;;4.70;;
908;SDS011;441;51.192;6.788;2022-11-20T00:22:24;5.37;;;5.17;;
908;SDS011;441;51.192;6.788;2022-11-20T00:24:51;5.20;;;5.00;;
908;SDS011;441;51.192;6.788;2022-11-20T00:27:17;5.40;;;5.10;;
908;SDS011;441;51.192;6.788;2022-11-20T00:29:46;5.90;;;5.50;;
908;SDS011;441;51.192;6.788;2022-11-20T00:32:12;5.90;;;5.60;;
908;SDS011;441;51.192;6.788;2022-11-20T00:34:39;6.20;;;5.90;;
908;SDS011;441;51.192;6.788;2022-11-20T00:37:06;6.00;;;5.70;;
908;SDS011;441;51.192;6.788;2022-11-20T00:39:33;6.60;;;6.20;;
908;SDS011;441;51.192;6.788;2022-11-20T00:42:00;5.70;;;5.40;;
908;SDS011;441;51.192;6.788;2022-11-20T00:44:26;5.00;;;4.80;;
908;SDS011;441;51.192;6.788;2022-11-20T00:46:55;5.40;;;5.20;;
908;SDS011;441;51.192;6.788;2022-11-20T00:49:22;5.63;;;5.40;;
908;SDS011;441;51.192;6.788;2022-11-20T00:51:48;6.50;;;6.10;;
908;SDS011;441;51.192;6.788;2022-11-20T00:54:15;5.90;;;5.60;;
908;SDS011;441;51.192;6.788;2022-11-20T00:56:42;5.50;;;5.20;;
908;SDS011;441;51.192;6.788;2022-11-20T00:59:09;4.70;;;4.53;;
908;SDS011;441;51.192;6.788;2022-11-20T01:01:36;5.83;;;5.53;;
908;SDS011;441;51.192;6.788;2022-11-20T01:04:05;5.03;;;4.83;;
908;SDS011;441;51.192;6.788;2022-11-20T01:06:32;6.00;;;5.70;;
908;SDS011;441;51.192;6.788;2022-11-20T01:09:01;5.93;;;5.63;;
908;SDS011;441;51.192;6.788;2022-11-20T01:11:30;5.70;;;5.40;;
908;SDS011;441;51.192;6.788;2022-11-20T01:13:58;6.03;;;5.73;;
908;SDS011;441;51.192;6.788;2022-11-20T01:16:27;5.70;;;5.40;;
908;SDS011;441;51.192;6.788;2022-11-20T01:18:56;5.97;;;5.67;;
908;SDS011;441;51.192;6.788;2022-11-20T01:21:26;5.23;;;4.93;;
908;SDS011;441;51.192;6.788;2022-11-20T01:23:55;5.80;;;5.40;;
908;SDS011;441;51.192;6.788;2022-11-20T01:26:22;5.90;;;5.33;;
908;SDS011;441;51.192;6.788;2022-11-20T01:28:50;5.33;;;4.93;;
908;SDS011;441;51.192;6.788;2022-11-20T01:31:18;6.00;;;5.70;;
908;SDS011;441;51.192;6.788;2022-11-20T01:33:46;5.67;;;5.27;;
908;SDS011;441;51.192;6.788;2022-11-20T01:36:15;4.80;;;4.60;;
908;SDS011;441;51.192;6.788;2022-11-20T01:38:44;5.60;;;5.30;;
908;SDS011;441;51.192;6.788;2022-11-20T01:41:12;5.30;;;5.00;;
908;SDS011;441;51.192;6.788;2022-11-20T01:44:00;4.90;;;4.70;;
908;SDS011;441;51.192;6.788;2022-11-20T01:46:28;5.37;;;5.07;;
908;SDS011;441;51.192;6.788;2022-11-20T01:48:56;5.63;;;5.33;;
908;SDS011;441;51.192;6.788;2022-11-20T01:51:27;5.50;;;5.20;;
908;SDS011;441;51.192;6.788;2022-11-20T01:54:01;5.90;;;5.50;;
908;SDS011;441;51.192;6.788;2022-11-20T01:56:31;5.80;;;5.50;;
908;SDS011;441;51.192;6.788;2022-11-20T01:59:02;5.27;;;5.07;;
908;SDS011;441;51.192;6.788;2022-11-20T02:01:33;5.63;;;5.33;;
908;SDS011;441;51.192;6.788;2022-11-20T02:04:00;5.20;;;4.90;;
908;SDS011;441;51.192;6.788;2022-11-20T02:06:28;5.70;;;5.40;;
908;SDS011;441;51.192;6.788;2022-11-20T02:09:00;5.40;;;5.10;;
908;SDS011;441;51.192;6.788;2022-11-20T02:11:27;5.20;;;5.00;;
908;SDS011;441;51.192;6.788;2022-11-20T02:13:56;5.83;;;5.53;;
908;SDS011;441;51.192;6.788;2022-11-20T02:16:23;5.50;;;5.20;;
908;SDS011;441;51.192;6.788;2022-11-20T02:18:51;5.33;;;5.03;;
908;SDS011;441;51.192;6.788;2022-11-20T02:21:23;5.70;;;5.20;;
908;SDS011;441;51.192;6.788;2022-11-20T02:24:02;5.90;;;5.60;;
908;SDS011;441;51.192;6.788;2022-11-20T02:26:32;6.00;;;5.70;;
908;SDS011;441;51.192;6.788;2022-11-20T02:29:04;4.80;;;4.50;;
908;SDS011;441;51.192;6.788;2022-11-20T02:31:35;4.90;;;4.70;;
908;SDS011;441;51.192;6.788;2022-11-20T02:34:04;5.97;;;5.47;;
908;SDS011;441;51.192;6.788;2022-11-20T02:36:31;5.63;;;5.33;;
908;SDS011;441;51.192;6.788;2022-11-20T02:39:00;6.33;;;6.03;;
908;SDS011;441;51.192;6.788;2022-11-20T02:41:33;5.77;;;5.50;;
908;SDS011;441;51.192;6.788;2022-11-20T02:44:00;5.27;;;4.97;;
908;SDS011;441;51.192;6.788;2022-11-20T02:46:27;5.40;;;5.20;;
908;SDS011;441;51.192;6.788;2022-11-20T02:48:55;5.57;;;5.17;;
908;SDS011;441;51.192;6.788;2022-11-20T02:51:22;5.43;;;5.13;;
908;SDS011;441;51.192;6.788;2022-11-20T02:53:49;5.90;;;5.50;;
908;SDS011;441;51.192;6.788;2022-11-20T02:56:17;5.83;;;5.47;;
908;SDS011;441;51.192;6.788;2022-11-20T02:58:44;5.93;;;5.63;;
908;SDS011;441;51.192;6.788;2022-11-20T03:01:11;6.87;;;6.47;;
908;SDS011;441;51.192;6.788;2022-11-20T03:03:38;5.53;;;5.13;;
908;SDS011;441;51.192;6.788;2022-11-20T03:06:05;5.97;;;5.63;;
908;SDS011;441;51.192;6.788;2022-11-20T03:08:32;5.70;;;5.33;;
908;SDS011;441;51.192;6.788;2022-11-20T03:11:01;5.10;;;4.80;;
908;SDS011;441;51.192;6.788;2022-11-20T03:13:31;5.37;;;5.07;;
908;SDS011;441;51.192;6.788;2022-11-20T03:15:58;5.33;;;5.13;;
908;SDS011;441;51.192;6.788;2022-11-20T03:18:30;6.20;;;5.90;;
908;SDS011;441;51.192;6.788;2022-11-20T03:20:57;6.20;;;5.70;;
908;SDS011;441;51.192;6.788;2022-11-20T03:23:24;6.63;;;6.23;;
908;SDS011;441;51.192;6.788;2022-11-20T03:25:51;5.77;;;5.47;;
908;SDS011;441;51.192;6.788;2022-11-20T03:28:18;5.70;;;5.40;;
908;SDS011;441;51.192;6.788;2022-11-20T03:30:47;5.90;;;5.60;;
908;SDS011;441;51.192;6.788;2022-11-20T03:33:13;5.03;;;4.80;;
908;SDS011;441;51.192;6.788;2022-11-20T03:35:40;5.10;;;4.80;;
908;SDS011;441;51.192;6.788;2022-11-20T03:38:07;5.57;;;5.27;;
908;SDS011;441;51.192;6.788;2022-11-20T03:40:34;6.30;;;5.80;;
908;SDS011;441;51.192;6.788;2022-11-20T03:43:01;5.30;;;5.10;;
908;SDS011;441;51.192;6.788;2022-11-20T03:45:28;6.60;;;6.20;;
908;SDS011;441;51.192;6.788;2022-11-20T03:47:56;5.57;;;5.27;;
908;SDS011;441;51.192;6.788;2022-11-20T03:50:23;5.40;;;5.20;;
908;SDS011;441;51.192;6.788;2022-11-20T03:52:50;5.10;;;4.90;;
908;SDS011;441;51.192;6.788;2022-11-20T03:55:16;5.10;;;4.80;;
908;SDS011;441;51.192;6.788;2022-11-20T03:57:43;6.10;;;5.80;;
908;SDS011;441;51.192;6.788;2022-11-20T04:00:11;5.67;;;5.30;;
908;SDS011;441;51.192;6.788;2022-11-20T04:02:38;5.90;;;5.60;;
908;SDS011;441;51.192;6.788;2022-11-20T04:05:07;5.47;;;5.17;;
908;SDS011;441;51.192;6.788;2022-11-20T04:07:34;4.60;;;4.40;;
908;SDS011;441;51.192;6.788;2022-11-20T04:10:01;4.97;;;4.70;;
908;SDS011;441;51.192;6.788;2022-11-20T04:12:31;5.60;;;5.30;;
908;SDS011;441;51.192;6.788;2022-11-20T04:14:59;4.80;;;4.60;;
908;SDS011;441;51.192;6.788;2022-11-20T04:17:26;5.93;;;5.63;;
908;SDS011;441;51.192;6.788;2022-11-20T04:19:53;5.97;;;5.67;;
908;SDS011;441;51.192;6.788;2022-11-20T04:22:21;4.97;;;4.67;;
908;SDS011;441;51.192;6.788;2022-11-20T04:24:48;5.13;;;4.93;;
908;SDS011;441;51.192;6.788;2022-11-20T04:27:14;5.53;;;5.27;;
908;SDS011;441;51.192;6.788;2022-11-20T04:29:41;5.17;;;4.80;;
908;SDS011;441;51.192;6.788;2022-11-20T04:32:08;5.93;;;5.60;;
908;SDS011;441;51.192;6.788;2022-11-20T04:34:35;5.10;;;4.83;;
908;SDS011;441;51.192;6.788;2022-11-20T04:37:02;6.20;;;5.80;;
908;SDS011;441;51.192;6.788;2022-11-20T04:39:30;4.90;;;4.70;;
908;SDS011;441;51.192;6.788;2022-11-20T04:41:57;5.43;;;5.13;;
908;SDS011;441;51.192;6.788;2022-11-20T04:44:38;5.23;;;4.97;;
908;SDS011;441;51.192;6.788;2022-11-20T04:47:05;4.73;;;4.53;;
908;SDS011;441;51.192;6.788;2022-11-20T04:49:32;4.93;;;4.63;;
908;SDS011;441;51.192;6.788;2022-11-20T04:51:59;5.00;;;4.73;;
908;SDS011;441;51.192;6.788;2022-11-20T04:54:26;4.80;;;4.50;;
908;SDS011;441;51.192;6.788;2022-11-20T04:56:54;5.40;;;5.10;;
908;SDS011;441;51.192;6.788;2022-11-20T04:59:21;5.73;;;5.43;;
908;SDS011;441;51.192;6.788;2022-11-20T05:01:48;5.87;;;5.57;;
908;SDS011;441;51.192;6.788;2022-11-20T05:04:14;5.37;;;5.00;;
908;SDS011;441;51.192;6.788;2022-11-20T05:06:41;6.83;;;6.43;;
908;SDS011;441;51.192;6.788;2022-11-20T05:09:08;5.43;;;5.17;;
908;SDS011;441;51.192;6.788;2022-11-20T05:11:35;5.07;;;4.83;;
908;SDS011;441;51.192;6.788;2022-11-20T05:14:03;5.67;;;5.37;;
908;SDS011;441;51.192;6.788;2022-11-20T05:16:30;5.33;;;5.03;;
908;SDS011;441;51.192;6.788;2022-11-20T05:18:57;5.33;;;5.03;;
908;SDS011;441;51.192;6.788;2022-11-20T05:21:24;6.00;;;5.50;;
908;SDS011;441;51.192;6.788;2022-11-20T05:23:50;5.00;;;4.83;;
908;SDS011;441;51.192;6.788;2022-11-20T05:26:18;5.90;;;5.60;;
908;SDS011;441;51.192;6.788;2022-11-20T05:28:46;5.10;;;4.90;;
908;SDS011;441;51.192;6.788;2022-11-20T05:31:15;5.90;;;5.60;;
908;SDS011;441;51.192;6.788;2022-11-20T05:33:44;5.90;;;5.60;;
908;SDS011;441;51.192;6.788;2022-11-20T05:36:12;6.03;;;5.63;;
908;SDS011;441;51.192;6.788;2022-11-20T05:38:40;6.83;;;6.33;;
908;SDS011;441;51.192;6.788;2022-11-20T05:41:07;5.43;;;5.13;;
908;SDS011;441;51.192;6.788;2022-11-20T05:43:35;5.20;;;5.00;;
908;SDS011;441;51.192;6.788;2022-11-20T05:46:03;5.10;;;4.90;;
908;SDS011;441;51.192;6.788;2022-11-20T05:48:32;6.97;;;6.60;;
908;SDS011;441;51.192;6.788;2022-11-20T05:51:00;5.93;;;5.63;;
908;SDS011;441;51.192;6.788;2022-11-20T05:53:29;5.73;;;5.43;;
908;SDS011;441;51.192;6.788;2022-11-20T05:55:57;6.03;;;5.73;;
908;SDS011;441;51.192;6.788;2022-11-20T05:58:24;5.70;;;5.40;;
908;SDS011;441;51.192;6.788;2022-11-20T06:00:51;5.60;;;5.30;;
908;SDS011;441;51.192;6.788;2022-11-20T06:03:18;5.53;;;5.33;;
908;SDS011;441;51.192;6.788;2022-11-20T06:05:46;6.10;;;5.90;;
908;SDS011;441;51.192;6.788;2022-11-20T06:08:13;5.60;;;5.20;;
908;SDS011;441;51.192;6.788;2022-11-20T06:10:40;5.80;;;5.50;;
908;SDS011;441;51.192;6.788;2022-11-20T06:13:07;5.30;;;5.10;;
908;SDS011;441;51.192;6.788;2022-11-20T06:15:33;6.50;;;6.10;;
908;SDS011;441;51.192;6.788;2022-11-20T06:18:00;5.23;;;5.03;;
908;SDS011;441;51.192;6.788;2022-11-20T06:20:27;6.30;;;5.70;;
908;SDS011;441;51.192;6.788;2022-11-20T06:22:55;4.80;;;4.60;;
908;SDS011;441;51.192;6.788;2022-11-20T06:25:22;5.00;;;4.80;;
908;SDS011;441;51.192;6.788;2022-11-20T06:27:49;5.53;;;5.33;;
908;SDS011;441;51.192;6.788;2022-11-20T06:30:16;5.30;;;5.10;;
908;SDS011;441;51.192;6.788;2022-11-20T06:32:43;5.93;;;5.50;;
908;SDS011;441;51.192;6.788;2022-11-20T06:35:10;5.50;;;5.20;;
908;SDS011;441;51.192;6.788;2022-11-20T06:37:36;5.73;;;5.43;;
908;SDS011;441;51.192;6.788;2022-11-20T06:52:23;5.77;;;5.53;;
908;SDS011;441;51.192;6.788;2022-11-20T06:54:50;8.33;;;7.93;;
908;SDS011;441;51.192;6.788;2022-11-20T06:57:17;6.23;;;5.93;;
908;SDS011;441;51.192;6.788;2022-11-20T06:59:43;6.40;;;6.10;;
908;SDS011;441;51.192;6.788;2022-11-20T07:02:10;6.23;;;5.83;;
908;SDS011;441;51.192;6.788;2022-11-20T07:04:38;6.23;;;5.93;;
908;SDS011;441;51.192;6.788;2022-11-20T07:07:05;6.00;;;5.70;;
908;SDS011;441;51.192;6.788;2022-11-20T07:09:33;5.70;;;5.50;;
908;SDS011;441;51.192;6.788;2022-11-20T07:12:00;5.47;;;5.17;;
908;SDS011;441;51.192;6.788;2022-11-20T07:14:27;5.90;;;5.53;;
908;SDS011;441;51.192;6.788;2022-11-20T07:16:54;5.50;;;5.30;;
908;SDS011;441;51.192;6.788;2022-11-20T07:19:21;5.93;;;5.57;;
908;SDS011;441;51.192;6.788;2022-11-20T07:21:49;8.20;;;7.80;;
908;SDS011;441;51.192;6.788;2022-11-20T07:24:17;6.20;;;5.80;;
908;SDS011;441;51.192;6.788;2022-11-20T07:26:47;5.67;;;5.37;;
908;SDS011;441;51.192;6.788;2022-11-20T07:29:14;6.20;;;5.80;;
908;SDS011;441;51.192;6.788;2022-11-20T07:31:41;6.27;;;5.90;;
908;SDS011;441;51.192;6.788;2022-11-20T07:34:08;6.17;;;5.77;;
908;SDS011;441;51.192;6.788;2022-11-20T07:36:35;7.13;;;5.40;;
908;SDS011;441;51.192;6.788;2022-11-20T07:39:03;5.23;;;5.00;;
908;SDS011;441;51.192;6.788;2022-11-20T07:41:30;6.07;;;5.77;;
908;SDS011;441;51.192;6.788;2022-11-20T07:43:58;7.23;;;6.60;;
908;SDS011;441;51.192;6.788;2022-11-20T07:46:25;6.27;;;5.77;;
908;SDS011;441;51.192;6.788;2022-11-20T07:48:52;5.87;;;5.57;;
908;SDS011;441;51.192;6.788;2022-11-20T07:51:19;6.17;;;5.77;;
908;SDS011;441;51.192;6.788;2022-11-20T07:53:46;6.10;;;5.77;;
908;SDS011;441;51.192;6.788;2022-11-20T07:56:13;4.97;;;4.77;;
908;SDS011;441;51.192;6.788;2022-11-20T07:58:40;6.47;;;5.97;;
908;SDS011;441;51.192;6.788;2022-11-20T08:01:08;6.33;;;5.77;;
908;SDS011;441;51.192;6.788;2022-11-20T08:03:36;5.80;;;5.50;;
908;SDS011;441;51.192;6.788;2022-11-20T08:06:03;6.60;;;6.20;;
908;SDS011;441;51.192;6.788;2022-11-20T08:08:31;5.90;;;5.60;;
908;SDS011;441;51.192;6.788;2022-11-20T08:10:58;6.30;;;6.00;;
908;SDS011;441;51.192;6.788;2022-11-20T08:13:46;6.43;;;6.10;;
908;SDS011;441;51.192;6.788;2022-11-20T08:16:32;6.50;;;6.10;;
908;SDS011;441;51.192;6.788;2022-11-20T08:18:59;6.20;;;5.90;;
908;SDS011;441;51.192;6.788;2022-11-20T08:21:25;6.63;;;6.20;;
908;SDS011;441;51.192;6.788;2022-11-20T08:23:53;6.20;;;5.60;;
908;SDS011;441;51.192;6.788;2022-11-20T08:26:20;6.47;;;6.07;;
908;SDS011;441;51.192;6.788;2022-11-20T08:28:47;6.40;;;6.10;;
908;SDS011;441;51.192;6.788;2022-11-20T08:31:14;6.30;;;6.00;;
908;SDS011;441;51.192;6.788;2022-11-20T08:33:43;6.00;;;5.70;;
908;SDS011;441;51.192;6.788;2022-11-20T08:36:09;5.90;;;5.60;;
908;SDS011;441;51.192;6.788;2022-11-20T08:38:36;6.10;;;5.53;;
908;SDS011;441;51.192;6.788;2022-11-20T08:41:04;6.70;;;6.40;;
908;SDS011;441;51.192;6.788;2022-11-20T08:43:50;6.17;;;5.87;;
908;SDS011;441;51.192;6.788;2022-11-20T08:46:19;6.27;;;5.97;;
908;SDS011;441;51.192;6.788;2022-11-20T08:48:48;6.43;;;6.13;;
908;SDS011;441;51.192;6.788;2022-11-20T08:51:15;6.10;;;5.80;;
908;SDS011;441;51.192;6.788;2022-11-20T08:53:43;6.47;;;6.17;;
908;SDS011;441;51.192;6.788;2022-11-20T08:56:09;6.90;;;6.50;;
908;SDS011;441;51.192;6.788;2022-11-20T08:58:37;6.20;;;5.90;;
908;SDS011;441;51.192;6.788;2022-11-20T09:01:04;6.33;;;5.93;;
908;SDS011;441;51.192;6.788;2022-11-20T09:03:31;6.43;;;6.13;;
908;SDS011;441;51.192;6.788;2022-11-20T09:06:00;6.30;;;6.00;;
908;SDS011;441;51.192;6.788;2022-11-20T09:08:29;6.70;;;6.10;;
908;SDS011;441;51.192;6.788;2022-11-20T09:10:57;5.80;;;5.40;;
908;SDS011;441;51.192;6.788;2022-11-20T09:13:24;6.23;;;5.93;;
908;SDS011;441;51.192;6.788;2022-11-20T09:15:53;5.13;;;4.90;;
908;SDS011;441;51.192;6.788;2022-11-20T09:18:21;6.33;;;5.83;;
908;SDS011;441;51.192;6.788;2022-11-20T09:20:48;5.07;;;4.87;;
908;SDS011;441;51.192;6.788;2022-11-20T09:23:16;5.40;;;5.00;;
908;SDS011;441;51.192;6.788;2022-11-20T09:25:43;5.70;;;5.40;;
908;SDS011;441;51.192;6.788;2022-11-20T09:28:10;5.83;;;5.53;;
908;SDS011;441;51.192;6.788;2022-11-20T09:30:37;5.97;;;5.47;;
908;SDS011;441;51.192;6.788;2022-11-20T09:33:04;6.60;;;6.27;;
908;SDS011;441;51.192;6.788;2022-11-20T09:35:31;6.60;;;6.00;;
908;SDS011;441;51.192;6.788;2022-11-20T09:38:03;6.23;;;5.93;;
908;SDS011;441;51.192;6.788;2022-11-20T09:40:32;6.47;;;6.17;;
908;SDS011;441;51.192;6.788;2022-11-20T09:43:01;5.87;;;5.47;;
908;SDS011;441;51.192;6.788;2022-11-20T09:45:38;5.50;;;5.30;;
908;SDS011;441;51.192;6.788;2022-11-20T09:48:28;6.33;;;5.83;;
908;SDS011;441;51.192;6.788;2022-11-20T09:51:04;6.23;;;5.93;;
908;SDS011;441;51.192;6.788;2022-11-20T09:53:41;6.37;;;6.07;;
908;SDS011;441;51.192;6.788;2022-11-20T09:56:19;5.93;;;5.70;;
908;SDS011;441;51.192;6.788;2022-11-20T09:58:47;6.37;;;5.90;;
908;SDS011;441;51.192;6.788;2022-11-20T10:01:17;6.40;;;6.00;;
908;SDS011;441;51.192;6.788;2022-11-20T10:03:48;6.07;;;5.80;;
908;SDS011;441;51.192;6.788;2022-11-20T10:06:21;5.87;;;5.63;;
908;SDS011;441;51.192;6.788;2022-11-20T10:08:58;6.77;;;6.13;;
908;SDS011;441;51.192;6.788;2022-11-20T10:11:48;5.50;;;5.30;;
908;SDS011;441;51.192;6.788;2022-11-20T10:14:25;5.93;;;5.73;;
908;SDS011;441;51.192;6.788;2022-11-20T10:16:59;6.10;;;5.80;;
908;SDS011;441;51.192;6.788;2022-11-20T10:19:44;5.80;;;5.50;;
908;SDS011;441;51.192;6.788;2022-11-20T10:22:26;6.50;;;6.20;;
908;SDS011;441;51.192;6.788;2022-11-20T10:25:06;6.10;;;5.90;;
908;SDS011;441;51.192;6.788;2022-11-20T10:30:42;6.50;;;6.20;;
908;SDS011;441;51.192;6.788;2022-11-20T10:33:13;5.70;;;5.40;;
908;SDS011;441;51.192;6.788;2022-11-20T10:35:44;5.67;;;5.47;;
908;SDS011;441;51.192;6.788;2022-11-20T10:38:18;5.53;;;5.30;;
908;SDS011;441;51.192;6.788;2022-11-20T10:40:48;6.30;;;5.80;;
908;SDS011;441;51.192;6.788;2022-11-20T10:43:19;6.77;;;6.43;;
908;SDS011;441;51.192;6.788;2022-11-20T10:45:56;6.50;;;6.10;;
908;SDS011;441;51.192;6.788;2022-11-20T10:48:25;7.50;;;7.00;;
908;SDS011;441;51.192;6.788;2022-11-20T10:51:05;6.63;;;6.33;;
908;SDS011;441;51.192;6.788;2022-11-20T10:53:42;6.57;;;6.00;;
908;SDS011;441;51.192;6.788;2022-11-20T10:56:25;6.43;;;6.03;;
908;SDS011;441;51.192;6.788;2022-11-20T10:59:04;6.20;;;5.90;;
908;SDS011;441;51.192;6.788;2022-11-20T11:01:41;6.50;;;6.10;;
908;SDS011;441;51.192;6.788;2022-11-20T11:04:14;7.57;;;7.17;;
908;SDS011;441;51.192;6.788;2022-11-20T11:06:53;6.00;;;5.70;;
908;SDS011;441;51.192;6.788;2022-11-20T11:09:27;6.20;;;5.90;;
908;SDS011;441;51.192;6.788;2022-11-20T11:12:00;7.67;;;7.23;;
908;SDS011;441;51.192;6.788;2022-11-20T11:14:28;6.90;;;6.50;;
908;SDS011;441;51.192;6.788;2022-11-20T11:16:56;8.47;;;7.90;;
908;SDS011;441;51.192;6.788;2022-11-20T11:19:24;7.40;;;7.10;;
908;SDS011;441;51.192;6.788;2022-11-20T11:21:52;6.80;;;6.50;;
908;SDS011;441;51.192;6.788;2022-11-20T11:24:22;7.03;;;6.63;;
908;SDS011;441;51.192;6.788;2022-11-20T11:26:58;7.67;;;6.97;;
908;SDS011;441;51.192;6.788;2022-11-20T11:29:30;6.97;;;6.67;;
908;SDS011;441;51.192;6.788;2022-11-20T11:32:04;7.00;;;6.70;;
908;SDS011;441;51.192;6.788;2022-11-20T11:34:31;7.03;;;6.63;;
908;SDS011;441;51.192;6.788;2022-11-20T11:36:59;6.67;;;6.30;;
908;SDS011;441;51.192;6.788;2022-11-20T11:39:28;8.17;;;7.67;;
908;SDS011;441;51.192;6.788;2022-11-20T11:41:56;6.80;;;6.40;;
908;SDS011;441;51.192;6.788;2022-11-20T11:44:24;7.40;;;7.00;;
908;SDS011;441;51.192;6.788;2022-11-20T11:47:17;7.50;;;7.10;;
908;SDS011;441;51.192;6.788;2022-11-20T11:49:48;7.07;;;6.57;;
908;SDS011;441;51.192;6.788;2022-11-20T11:52:15;7.07;;;6.60;;
908;SDS011;441;51.192;6.788;2022-11-20T11:54:45;7.70;;;7.20;;
908;SDS011;441;51.192;6.788;2022-11-20T11:57:17;7.00;;;6.60;;
908;SDS011;441;51.192;6.788;2022-11-20T11:59:55;7.20;;;6.80;;
908;SDS011;441;51.192;6.788;2022-11-20T12:02:36;7.43;;;6.80;;
908;SDS011;441;51.192;6.788;2022-11-20T12:05:13;7.00;;;6.53;;
908;SDS011;441;51.192;6.788;2022-11-20T12:07:45;6.23;;;5.93;;
908;SDS011;441;51.192;6.788;2022-11-20T12:10:21;6.50;;;6.10;;
908;SDS011;441;51.192;6.788;2022-11-20T12:12:51;7.73;;;7.30;;
908;SDS011;441;51.192;6.788;2022-11-20T12:15:29;7.33;;;6.90;;
908;SDS011;441;51.192;6.788;2022-11-20T12:17:58;6.87;;;6.57;;
908;SDS011;441;51.192;6.788;2022-11-20T12:20:26;6.70;;;6.20;;
908;SDS011;441;51.192;6.788;2022-11-20T12:23:00;6.53;;;6.23;;
908;SDS011;441;51.192;6.788;2022-11-20T12:25:33;7.03;;;6.43;;
908;SDS011;441;51.192;6.788;2022-11-20T12:28:14;6.57;;;6.10;;
908;SDS011;441;51.192;6.788;2022-11-20T12:31:06;6.67;;;6.37;;
908;SDS011;441;51.192;6.788;2022-11-20T12:33:51;7.17;;;6.67;;
908;SDS011;441;51.192;6.788;2022-11-20T12:36:28;7.43;;;7.13;;
908;SDS011;441;51.192;6.788;2022-11-20T12:39:07;6.80;;;6.40;;
908;SDS011;441;51.192;6.788;2022-11-20T12:42:03;6.77;;;6.37;;
908;SDS011;441;51.192;6.788;2022-11-20T12:45:12;6.50;;;6.10;;
908;SDS011;441;51.192;6.788;2022-11-20T12:51:05;6.50;;;6.20;;
908;SDS011;441;51.192;6.788;2022-11-20T12:53:47;6.30;;;6.00;;
908;SDS011;441;51.192;6.788;2022-11-20T12:56:28;7.63;;;7.23;;
908;SDS011;441;51.192;6.788;2022-11-20T12:59:03;6.73;;;6.33;;
908;SDS011;441;51.192;6.788;2022-11-20T13:01:45;6.27;;;5.87;;
908;SDS011;441;51.192;6.788;2022-11-20T13:04:21;6.70;;;6.40;;
908;SDS011;441;51.192;6.788;2022-11-20T13:07:00;6.30;;;5.80;;
908;SDS011;441;51.192;6.788;2022-11-20T13:09:29;7.57;;;6.97;;
908;SDS011;441;51.192;6.788;2022-11-20T13:11:58;6.80;;;6.50;;
908;SDS011;441;51.192;6.788;2022-11-20T13:14:35;6.93;;;6.43;;
908;SDS011;441;51.192;6.788;2022-11-20T13:17:09;6.33;;;6.03;;
908;SDS011;441;51.192;6.788;2022-11-20T13:19:40;5.77;;;5.40;;
908;SDS011;441;51.192;6.788;2022-11-20T13:22:09;6.63;;;6.23;;
908;SDS011;441;51.192;6.788;2022-11-20T13:24:36;6.20;;;5.90;;
908;SDS011;441;51.192;6.788;2022-11-20T13:27:03;7.23;;;6.83;;
908;SDS011;441;51.192;6.788;2022-11-20T13:29:45;6.20;;;5.90;;
908;SDS011;441;51.192;6.788;2022-11-20T13:32:29;6.47;;;6.17;;
908;SDS011;441;51.192;6.788;2022-11-20T13:34:58;6.83;;;6.53;;
908;SDS011;441;51.192;6.788;2022-11-20T13:37:29;7.40;;;6.90;;
908;SDS011;441;51.192;6.788;2022-11-20T13:42:54;8.00;;;7.50;;
908;SDS011;441;51.192;6.788;2022-11-20T13:45:27;6.80;;;6.37;;
908;SDS011;441;51.192;6.788;2022-11-20T13:47:56;7.00;;;6.70;;
908;SDS011;441;51.192;6.788;2022-11-20T13:50:29;6.93;;;6.63;;
908;SDS011;441;51.192;6.788;2022-11-20T13:53:16;7.47;;;6.77;;
908;SDS011;441;51.192;6.788;2022-11-20T13:55:58;6.60;;;6.20;;
908;SDS011;441;51.192;6.788;2022-11-20T13:58:35;5.97;;;5.77;;
908;SDS011;441;51.192;6.788;2022-11-20T14:01:13;6.50;;;6.20;;
908;SDS011;441;51.192;6.788;2022-11-20T14:03:43;6.67;;;6.37;;
908;SDS011;441;51.192;6.788;2022-11-20T14:06:11;7.20;;;6.67;;
908;SDS011;441;51.192;6.788;2022-11-20T14:08:45;6.50;;;6.20;;
908;SDS011;441;51.192;6.788;2022-11-20T14:11:14;7.30;;;6.90;;
908;SDS011;441;51.192;6.788;2022-11-20T14:13:56;6.33;;;6.03;;
908;SDS011;441;51.192;6.788;2022-11-20T14:16:25;7.03;;;6.63;;
908;SDS011;441;51.192;6.788;2022-11-20T14:18:53;7.30;;;6.70;;
908;SDS011;441;51.192;6.788;2022-11-20T14:21:22;6.60;;;6.30;;
908;SDS011;441;51.192;6.788;2022-11-20T14:23:53;7.23;;;6.67;;
908;SDS011;441;51.192;6.788;2022-11-20T14:26:28;6.37;;;6.07;;
908;SDS011;441;51.192;6.788;2022-11-20T14:28:55;6.60;;;6.30;;
908;SDS011;441;51.192;6.788;2022-11-20T14:31:23;7.60;;;7.10;;
908;SDS011;441;51.192;6.788;2022-11-20T14:33:52;6.70;;;6.40;;
908;SDS011;441;51.192;6.788;2022-11-20T14:36:20;7.17;;;6.57;;
908;SDS011;441;51.192;6.788;2022-11-20T14:38:49;7.03;;;6.43;;
908;SDS011;441;51.192;6.788;2022-11-20T14:41:18;6.90;;;6.60;;
908;SDS011;441;51.192;6.788;2022-11-20T14:43:47;7.67;;;7.27;;
908;SDS011;441;51.192;6.788;2022-11-20T14:46:19;7.00;;;6.60;;
908;SDS011;441;51.192;6.788;2022-11-20T14:48:47;7.17;;;6.77;;
908;SDS011;441;51.192;6.788;2022-11-20T14:51:26;7.43;;;6.83;;
908;SDS011;441;51.192;6.788;2022-11-20T14:53:56;7.47;;;6.97;;
908;SDS011;441;51.192;6.788;2022-11-20T14:56:36;6.40;;;6.10;;
908;SDS011;441;51.192;6.788;2022-11-20T14:59:03;6.60;;;6.30;;
908;SDS011;441;51.192;6.788;2022-11-20T15:01:31;6.70;;;6.40;;
908;SDS011;441;51.192;6.788;2022-11-20T15:03:59;6.80;;;6.30;;
908;SDS011;441;51.192;6.788;2022-11-20T15:06:28;7.23;;;6.83;;
908;SDS011;441;51.192;6.788;2022-11-20T15:08:56;7.27;;;6.60;;
908;SDS011;441;51.192;6.788;2022-11-20T15:11:27;6.37;;;6.07;;
908;SDS011;441;51.192;6.788;2022-11-20T15:13:58;6.83;;;6.43;;
908;SDS011;441;51.192;6.788;2022-11-20T15:16:29;6.87;;;6.47;;
908;SDS011;441;51.192;6.788;2022-11-20T15:18:56;6.77;;;6.40;;
908;SDS011;441;51.192;6.788;2022-11-20T15:21:23;8.17;;;7.67;;
908;SDS011;441;51.192;6.788;2022-11-20T15:23:50;6.37;;;5.97;;
908;SDS011;441;51.192;6.788;2022-11-20T15:26:20;7.80;;;7.23;;
908;SDS011;441;51.192;6.788;2022-11-20T15:28:49;7.10;;;6.80;;
908;SDS011;441;51.192;6.788;2022-11-20T15:31:19;6.30;;;6.00;;
908;SDS011;441;51.192;6.788;2022-11-20T15:33:46;6.30;;;6.00;;
908;SDS011;441;51.192;6.788;2022-11-20T15:36:14;6.53;;;6.23;;
908;SDS011;441;51.192;6.788;2022-11-20T15:38:41;6.70;;;6.40;;
908;SDS011;441;51.192;6.788;2022-11-20T15:41:07;7.20;;;6.80;;
908;SDS011;441;51.192;6.788;2022-11-20T15:43:35;6.40;;;6.10;;
908;SDS011;441;51.192;6.788;2022-11-20T15:46:03;10.03;;;9.50;;
908;SDS011;441;51.192;6.788;2022-11-20T15:48:34;6.50;;;6.20;;
908;SDS011;441;51.192;6.788;2022-11-20T15:51:05;6.33;;;6.03;;
908;SDS011;441;51.192;6.788;2022-11-20T15:53:38;6.67;;;6.37;;
908;SDS011;441;51.192;6.788;2022-11-20T15:56:08;7.40;;;7.00;;
908;SDS011;441;51.192;6.788;2022-11-20T15:58:38;7.50;;;7.00;;
908;SDS011;441;51.192;6.788;2022-11-20T16:01:05;6.60;;;6.30;;
908;SDS011;441;51.192;6.788;2022-11-20T16:03:33;8.97;;;7.67;;
908;SDS011;441;51.192;6.788;2022-11-20T16:06:00;7.37;;;6.73;;
908;SDS011;441;51.192;6.788;2022-11-20T16:08:27;7.07;;;6.77;;
908;SDS011;441;51.192;6.788;2022-11-20T16:10:53;7.10;;;6.80;;
908;SDS011;441;51.192;6.788;2022-11-20T16:13:20;8.07;;;7.47;;
908;SDS011;441;51.192;6.788;2022-11-20T16:16:05;6.97;;;6.57;;
908;SDS011;441;51.192;6.788;2022-11-20T16:18:35;7.00;;;6.60;;
908;SDS011;441;51.192;6.788;2022-11-20T16:21:02;7.87;;;7.37;;
908;SDS011;441;51.192;6.788;2022-11-20T16:23:30;7.50;;;6.90;;